Time;durP1;ratioP1;P1;durP2;ratioP2;P2;SDS_P1;SDS_P2;PMS_P1;PMS_P2;Temp;Humidity;BMP_temperature;BMP_pressure;BME280_temperature;BME280_humidity;BME280_pressure;Samples;Min_cycle;Max_cycle;Signal;HPM_P1;HPM_P2
2021/10/07 00:02:01;;;;;;;9.95;5.50;;;13.30;99.90;;;;;;5061823;28;21895;-73
2021/10/07 00:04:28;;;;;;;15.95;4.95;;;13.30;99.90;;;;;;5062660;28;20214;-72
2021/10/07 00:06:55;;;;;;;15.45;5.45;;;13.30;99.90;;;;;;5064540;28;20206;-72
2021/10/07 00:09:20;;;;;;;21.98;5.18;;;13.30;99.90;;;;;;5062414;28;20583;-72
2021/10/07 00:11:46;;;;;;;14.23;4.63;;;13.30;99.90;;;;;;5064034;28;20182;-72
2021/10/07 00:14:12;;;;;;;12.85;5.18;;;13.30;99.90;;;;;;5061942;28;20220;-73
2021/10/07 00:16:37;;;;;;;13.32;4.05;;;13.30;99.90;;;;;;5062358;28;20206;-72
2021/10/07 00:19:03;;;;;;;20.55;4.80;;;13.30;99.90;;;;;;5059098;28;20229;-72
2021/10/07 00:21:29;;;;;;;14.93;3.85;;;13.30;99.90;;;;;;5062114;28;20218;-72
2021/10/07 00:24:11;;;;;;;17.23;3.97;;;13.30;99.90;;;;;;5061378;28;20212;-71
2021/10/07 00:26:40;;;;;;;11.27;3.78;;;13.30;99.90;;;;;;5061180;28;20625;-72
2021/10/07 00:31:59;;;;;;;18.73;3.65;;;13.40;99.90;;;;;;5061374;28;20638;-72
2021/10/07 00:37:04;;;;;;;9.43;3.25;;;13.50;99.90;;;;;;5045224;28;20188;-72
2021/10/07 00:39:29;;;;;;;13.40;3.78;;;13.50;99.90;;;;;;5062086;28;20200;-71
2021/10/07 00:41:56;;;;;;;16.65;3.63;;;13.50;99.90;;;;;;5063480;28;20178;-72
2021/10/07 00:44:22;;;;;;;13.98;3.45;;;13.60;99.90;;;;;;5046162;28;20256;-72
2021/10/07 00:46:47;;;;;;;16.60;3.72;;;13.60;99.90;;;;;;5059369;28;20178;-72
2021/10/07 00:49:13;;;;;;;20.92;4.00;;;13.60;99.90;;;;;;5061753;28;20183;-73
2021/10/07 00:51:39;;;;;;;16.65;3.40;;;13.60;99.90;;;;;;5061015;28;20913;-72
2021/10/07 00:54:05;;;;;;;18.92;3.40;;;13.60;99.90;;;;;;5045820;28;20186;-71
2021/10/07 00:56:30;;;;;;;20.50;3.70;;;13.60;99.90;;;;;;5077873;28;20708;-72
2021/10/07 00:58:57;;;;;;;15.25;3.75;;;13.60;99.90;;;;;;5061735;28;20187;-71
2021/10/07 01:01:22;;;;;;;20.90;3.90;;;13.60;99.90;;;;;;5062707;28;20229;-72
2021/10/07 01:03:48;;;;;;;17.10;4.22;;;13.60;99.90;;;;;;5060243;28;20625;-72
2021/10/07 01:06:14;;;;;;;19.35;3.58;;;13.60;99.90;;;;;;5063752;28;20221;-72
2021/10/07 01:08:39;;;;;;;11.93;4.35;;;13.60;99.90;;;;;;5062244;28;20197;-72
2021/10/07 01:11:05;;;;;;;20.80;4.00;;;13.60;99.90;;;;;;5062565;28;20191;-71
2021/10/07 01:13:30;;;;;;;27.55;5.78;;;13.60;99.90;;;;;;5064270;28;21223;-72
2021/10/07 01:16:03;;;;;;;24.63;4.50;;;13.70;99.90;;;;;;5057947;28;20194;-71
2021/10/07 01:18:28;;;;;;;31.02;5.13;;;13.70;99.90;;;;;;5061819;28;20407;-72
2021/10/07 01:20:54;;;;;;;24.00;4.20;;;14.30;99.90;;;;;;5061090;28;20252;-71
2021/10/07 01:23:19;;;;;;;24.92;3.83;;;14.20;99.90;;;;;;5062590;28;20777;-72
2021/10/07 01:25:45;;;;;;;19.13;3.97;;;14.10;99.90;;;;;;5061977;28;20202;-72
2021/10/07 01:28:11;;;;;;;19.38;3.60;;;14.10;99.90;;;;;;5058523;28;20170;-72
2021/10/07 01:30:36;;;;;;;28.13;4.45;;;14.10;99.90;;;;;;5045640;28;20194;-72
2021/10/07 01:33:02;;;;;;;26.08;3.90;;;14.10;99.90;;;;;;5078688;28;20190;-72
2021/10/07 01:35:28;;;;;;;20.48;4.03;;;14.10;99.90;;;;;;5066438;28;20686;-73
2021/10/07 01:37:54;;;;;;;25.67;4.25;;;14.10;99.90;;;;;;5062838;28;20197;-72
2021/10/07 01:40:20;;;;;;;17.98;3.22;;;14.10;99.90;;;;;;5064156;28;20248;-72
2021/10/07 01:42:47;;;;;;;24.80;3.83;;;14.10;99.90;;;;;;5062414;28;20178;-71
2021/10/07 01:45:13;;;;;;;21.48;3.80;;;14.20;99.90;;;;;;5080315;28;20213;-72
2021/10/07 01:47:39;;;;;;;19.08;3.47;;;14.20;99.90;;;;;;5064295;28;20213;-71
2021/10/07 01:50:06;;;;;;;20.85;3.60;;;14.20;99.90;;;;;;5046737;28;20202;-73
2021/10/07 01:52:32;;;;;;;24.52;3.60;;;14.20;99.90;;;;;;5047160;28;20679;-71
2021/10/07 01:54:58;;;;;;;18.23;3.40;;;14.20;99.90;;;;;;5048124;28;20224;-72
2021/10/07 01:57:23;;;;;;;20.98;3.17;;;14.20;99.90;;;;;;5064719;28;20210;-71
2021/10/07 01:59:49;;;;;;;24.85;3.58;;;14.20;99.90;;;;;;5065240;28;20190;-73
2021/10/07 02:02:14;;;;;;;22.27;3.03;;;14.20;99.90;;;;;;5068133;28;20222;-73
2021/10/07 02:04:40;;;;;;;26.42;3.50;;;14.30;99.90;;;;;;5066577;28;20216;-72
2021/10/07 02:07:06;;;;;;;18.92;3.38;;;14.20;99.90;;;;;;5065049;28;20217;-73
2021/10/07 02:09:31;;;;;;;20.60;3.80;;;14.20;99.90;;;;;;5048136;28;20562;-72
2021/10/07 02:11:57;;;;;;;26.55;3.80;;;14.20;99.90;;;;;;5063894;28;20561;-73
2021/10/07 02:14:24;;;;;;;21.02;3.42;;;14.20;99.90;;;;;;5065130;28;20269;-72
2021/10/07 02:16:51;;;;;;;17.20;3.20;;;14.30;99.90;;;;;;5063092;28;20191;-72
2021/10/07 02:19:17;;;;;;;19.58;3.28;;;14.30;99.90;;;;;;5064425;28;20190;-72
2021/10/07 02:21:44;;;;;;;20.20;3.45;;;14.30;99.90;;;;;;5061676;28;20202;-72
2021/10/07 02:24:10;;;;;;;25.20;3.80;;;14.30;99.90;;;;;;5065971;28;20651;-73
2021/10/07 02:26:36;;;;;;;20.75;3.30;;;14.30;99.90;;;;;;5061582;28;20664;-73
2021/10/07 02:29:03;;;;;;;17.15;3.20;;;14.30;99.90;;;;;;5063587;28;20221;-74
2021/10/07 02:31:28;;;;;;;24.02;3.63;;;14.30;99.90;;;;;;5066452;28;20552;-72
2021/10/07 02:33:55;;;;;;;23.42;3.25;;;14.30;99.90;;;;;;5063700;28;20198;-72
2021/10/07 02:36:21;;;;;;;19.17;3.83;;;14.30;99.90;;;;;;5047629;28;20273;-72
2021/10/07 02:38:47;;;;;;;23.45;4.93;;;14.40;99.90;;;;;;5047272;28;20270;-71
2021/10/07 02:41:13;;;;;;;15.70;3.40;;;14.30;99.90;;;;;;5064086;28;20287;-71
2021/10/07 02:43:38;;;;;;;19.02;3.25;;;14.40;99.90;;;;;;5047574;28;20193;-70
2021/10/07 02:46:04;;;;;;;19.13;3.20;;;14.40;99.90;;;;;;5063099;28;20210;-72
2021/10/07 02:48:30;;;;;;;21.33;3.70;;;14.40;99.90;;;;;;5058383;28;20566;-71
2021/10/07 02:50:55;;;;;;;17.10;3.33;;;14.40;99.90;;;;;;5039918;28;20190;-72
2021/10/07 02:53:22;;;;;;;19.05;3.35;;;14.40;99.90;;;;;;5055894;28;20191;-70
2021/10/07 02:55:48;;;;;;;29.15;9.10;;;14.40;99.90;;;;;;5062385;28;20631;-72
2021/10/07 02:58:14;;;;;;;19.52;7.20;;;14.40;99.90;;;;;;5062787;28;20193;-72
2021/10/07 03:00:40;;;;;;;26.08;3.83;;;14.40;99.90;;;;;;5062162;28;20190;-70
2021/10/07 03:03:05;;;;;;;18.25;3.70;;;14.40;99.90;;;;;;5060711;28;20222;-71
2021/10/07 03:05:31;;;;;;;20.48;3.53;;;14.40;99.90;;;;;;5056948;28;20211;-72
2021/10/07 03:07:57;;;;;;;23.98;3.78;;;14.40;99.90;;;;;;5058866;28;20190;-72
2021/10/07 03:10:23;;;;;;;27.33;3.33;;;14.40;99.90;;;;;;5037610;28;20194;-71
2021/10/07 03:12:49;;;;;;;17.13;3.60;;;14.40;99.90;;;;;;5038796;28;20194;-71
2021/10/07 03:15:15;;;;;;;17.52;3.47;;;14.40;99.90;;;;;;5056515;28;20195;-72
2021/10/07 03:17:41;;;;;;;20.77;3.67;;;14.40;99.90;;;;;;5060205;28;20191;-73
2021/10/07 03:20:07;;;;;;;21.40;3.63;;;14.40;99.90;;;;;;5045209;28;20213;-72
2021/10/07 03:22:34;;;;;;;18.42;3.70;;;14.30;99.90;;;;;;5060484;28;20666;-71
2021/10/07 03:25:00;;;;;;;28.48;3.30;;;14.40;99.90;;;;;;5061051;28;20219;-72
2021/10/07 03:27:27;;;;;;;22.65;3.80;;;14.40;99.90;;;;;;5042500;28;20540;-73
2021/10/07 03:29:52;;;;;;;16.40;3.20;;;14.40;99.90;;;;;;5059226;28;20191;-71
2021/10/07 03:32:18;;;;;;;16.80;3.20;;;14.40;99.90;;;;;;5062679;28;20187;-71
2021/10/07 03:34:43;;;;;;;17.55;3.20;;;14.40;99.90;;;;;;5059568;28;20197;-72
2021/10/07 03:37:09;;;;;;;13.57;3.35;;;14.40;99.90;;;;;;5061697;28;20187;-72
2021/10/07 03:39:35;;;;;;;18.33;3.00;;;14.40;99.90;;;;;;5056894;28;20265;-70
2021/10/07 03:42:00;;;;;;;16.40;2.80;;;14.40;99.90;;;;;;5057754;28;20187;-71
2021/10/07 03:44:26;;;;;;;23.45;3.40;;;14.40;99.90;;;;;;5058747;28;20233;-71
2021/10/07 03:46:52;;;;;;;19.13;3.17;;;14.40;99.90;;;;;;5038815;28;20662;-72
2021/10/07 03:49:17;;;;;;;18.50;2.95;;;14.40;99.90;;;;;;5062374;28;20187;-72
2021/10/07 03:51:43;;;;;;;16.98;3.08;;;14.40;99.90;;;;;;5058740;28;20599;-70
2021/10/07 03:54:09;;;;;;;18.30;2.60;;;14.40;99.90;;;;;;5060421;28;20254;-72
2021/10/07 03:56:34;;;;;;;19.15;2.75;;;14.50;99.90;;;;;;5042087;28;20228;-70
2021/10/07 03:59:00;;;;;;;16.20;2.67;;;14.40;99.90;;;;;;5039487;28;20190;-71
2021/10/07 04:01:26;;;;;;;23.58;2.80;;;14.50;99.90;;;;;;5059748;28;20514;-70
2021/10/07 04:03:51;;;;;;;16.00;2.97;;;14.50;99.90;;;;;;5060920;28;20318;-70
2021/10/07 04:06:17;;;;;;;11.40;2.63;;;14.40;99.90;;;;;;5058194;28;20224;-71
2021/10/07 04:08:42;;;;;;;16.40;2.63;;;14.50;99.90;;;;;;5059683;28;20187;-71
2021/10/07 04:11:08;;;;;;;20.70;3.15;;;14.40;99.90;;;;;;5057960;28;20186;-71
2021/10/07 04:13:34;;;;;;;21.50;3.03;;;14.50;99.90;;;;;;5059697;28;20259;-70
2021/10/07 04:15:59;;;;;;;18.35;3.25;;;14.50;99.90;;;;;;5061059;28;20573;-70
2021/10/07 04:18:25;;;;;;;19.85;2.83;;;14.50;99.90;;;;;;5057030;28;20183;-73
2021/10/07 04:20:51;;;;;;;14.27;3.00;;;14.50;99.90;;;;;;5060305;28;20223;-72
2021/10/07 04:23:18;;;;;;;20.63;3.13;;;14.50;99.90;;;;;;5058585;28;20663;-71
2021/10/07 04:25:44;;;;;;;13.95;2.67;;;14.50;99.90;;;;;;5037945;28;20210;-72
2021/10/07 04:28:10;;;;;;;10.70;2.80;;;14.50;99.90;;;;;;5042459;28;20267;-73
2021/10/07 04:30:37;;;;;;;19.65;3.38;;;14.50;99.90;;;;;;5041311;28;20237;-72
2021/10/07 04:33:04;;;;;;;22.05;3.45;;;14.50;99.90;;;;;;5042183;28;20197;-72
2021/10/07 04:35:30;;;;;;;18.23;5.88;;;14.50;99.90;;;;;;5058520;28;20195;-71
2021/10/07 04:37:56;;;;;;;15.88;4.72;;;14.50;99.90;;;;;;5060062;28;20273;-71
2021/10/07 04:40:22;;;;;;;22.33;4.10;;;14.50;99.90;;;;;;5058658;28;20698;-72
2021/10/07 04:42:48;;;;;;;22.10;4.32;;;14.50;99.90;;;;;;5041841;28;20325;-72
2021/10/07 04:45:14;;;;;;;12.52;3.40;;;14.50;99.90;;;;;;5061535;28;20301;-72
2021/10/07 04:47:40;;;;;;;18.63;3.58;;;14.50;99.90;;;;;;5057228;28;20183;-71
2021/10/07 04:50:06;;;;;;;14.00;3.80;;;14.50;99.90;;;;;;5059470;28;20189;-73
2021/10/07 04:52:32;;;;;;;16.42;3.90;;;14.50;99.90;;;;;;5059456;28;20308;-72
2021/10/07 04:54:58;;;;;;;13.98;3.92;;;14.50;99.90;;;;;;5057944;28;20194;-70
2021/10/07 04:57:24;;;;;;;19.90;4.13;;;14.50;99.90;;;;;;5063261;28;20286;-71
2021/10/07 04:59:50;;;;;;;21.63;4.20;;;14.50;99.90;;;;;;5060586;28;20283;-72
2021/10/07 05:02:15;;;;;;;22.60;4.55;;;14.50;99.90;;;;;;5045646;28;20301;-73
2021/10/07 05:04:41;;;;;;;14.57;4.28;;;14.50;99.90;;;;;;5059335;28;20221;-71
2021/10/07 05:07:07;;;;;;;16.08;4.53;;;14.50;99.90;;;;;;5060345;28;20207;-74
2021/10/07 05:09:32;;;;;;;11.80;4.15;;;14.50;99.90;;;;;;5062630;28;20667;-74
2021/10/07 05:11:58;;;;;;;25.10;4.85;;;14.50;99.90;;;;;;5082762;28;20235;-72
2021/10/07 05:14:23;;;;;;;21.40;4.93;;;14.50;99.90;;;;;;5065240;28;20567;-75
2021/10/07 05:16:49;;;;;;;27.60;11.27;;;14.50;99.90;;;;;;5068144;28;20263;-75
2021/10/07 05:19:14;;;;;;;26.02;9.48;;;14.50;99.90;;;;;;5065207;28;20245;-72
2021/10/07 05:21:40;;;;;;;17.70;5.68;;;14.50;99.90;;;;;;5066122;28;20179;-73
2021/10/07 05:24:06;;;;;;;24.40;5.40;;;14.50;99.90;;;;;;5060059;28;20321;-72
2021/10/07 05:26:32;;;;;;;14.30;4.43;;;14.50;99.90;;;;;;5063607;28;20181;-74
2021/10/07 05:28:57;;;;;;;21.58;4.57;;;14.50;99.90;;;;;;5065496;28;20183;-72
2021/10/07 05:31:23;;;;;;;22.80;4.95;;;14.50;99.90;;;;;;5065458;28;20266;-72
2021/10/07 05:33:48;;;;;;;17.38;5.18;;;14.50;99.90;;;;;;5065116;28;20174;-73
2021/10/07 05:36:14;;;;;;;17.80;5.00;;;14.50;99.90;;;;;;5063783;28;20183;-73
2021/10/07 05:38:40;;;;;;;17.25;4.93;;;14.50;99.90;;;;;;5066067;28;20186;-72
2021/10/07 05:41:07;;;;;;;19.00;4.75;;;14.50;99.90;;;;;;5065493;28;20274;-73
2021/10/07 05:43:33;;;;;;;21.73;5.18;;;14.50;99.90;;;;;;5064838;28;20660;-74
2021/10/07 05:45:59;;;;;;;13.73;5.00;;;14.50;99.90;;;;;;5065697;28;20244;-74
2021/10/07 05:48:24;;;;;;;25.02;5.30;;;14.50;99.90;;;;;;5067468;28;20647;-73
2021/10/07 05:50:50;;;;;;;22.00;5.35;;;14.50;99.90;;;;;;5064789;28;20636;-73
2021/10/07 05:53:16;;;;;;;19.48;5.22;;;14.50;99.90;;;;;;5064343;28;20194;-75
2021/10/07 05:55:41;;;;;;;22.17;5.78;;;14.50;99.90;;;;;;5048404;28;20205;-72
2021/10/07 05:58:07;;;;;;;13.35;5.25;;;14.50;99.90;;;;;;5062296;28;20268;-75
2021/10/07 06:00:32;;;;;;;17.73;5.90;;;14.50;99.90;;;;;;5046662;28;20182;-73
2021/10/07 06:02:58;;;;;;;18.63;5.32;;;14.50;99.90;;;;;;5064446;28;20237;-72
2021/10/07 06:05:24;;;;;;;25.35;5.90;;;14.50;99.90;;;;;;5065243;28;20215;-71
2021/10/07 06:07:49;;;;;;;16.73;5.80;;;14.50;99.90;;;;;;5060102;28;20174;-74
2021/10/07 06:10:15;;;;;;;22.75;5.47;;;14.50;99.90;;;;;;5064928;28;20196;-73
2021/10/07 06:12:44;;;;;;;14.50;6.72;;;14.50;99.90;;;;;;5064096;28;20194;-71
2021/10/07 06:15:11;;;;;;;21.63;7.05;;;14.50;99.90;;;;;;5063569;28;20194;-72
2021/10/07 06:17:37;;;;;;;20.65;7.00;;;14.50;99.90;;;;;;5062824;28;20731;-73
2021/10/07 06:20:16;;;;;;;20.92;7.40;;;14.50;99.90;;;;;;5065043;28;20252;-73
2021/10/07 06:22:41;;;;;;;24.33;7.45;;;14.50;99.90;;;;;;5061693;28;20576;-70
2021/10/07 06:25:07;;;;;;;21.17;8.07;;;14.50;99.90;;;;;;5064742;28;20210;-74
2021/10/07 06:27:33;;;;;;;21.95;8.02;;;14.50;99.90;;;;;;5043459;28;20194;-71
2021/10/07 06:29:59;;;;;;;22.05;7.65;;;14.50;99.90;;;;;;5081971;28;20182;-73
2021/10/07 06:32:24;;;;;;;26.57;9.87;;;14.50;99.90;;;;;;5060452;28;20408;-74
2021/10/07 06:34:50;;;;;;;20.88;9.00;;;15.00;99.90;;;;;;5063148;28;20447;-70
2021/10/07 06:37:16;;;;;;;23.17;8.52;;;15.40;99.90;;;;;;5058685;28;20199;-71
2021/10/07 06:39:41;;;;;;;26.80;9.20;;;15.10;99.90;;;;;;5062401;28;20290;-72
2021/10/07 06:42:07;;;;;;;25.25;9.68;;;15.00;99.90;;;;;;5064561;28;20175;-72
2021/10/07 06:44:33;;;;;;;27.80;10.02;;;14.90;99.90;;;;;;5063502;28;20294;-71
2021/10/07 06:46:58;;;;;;;24.27;10.38;;;14.80;99.90;;;;;;5067120;28;20183;-72
2021/10/07 06:49:24;;;;;;;27.80;10.90;;;14.80;99.90;;;;;;5059456;28;20179;-71
2021/10/07 06:51:50;;;;;;;23.60;11.32;;;14.70;99.90;;;;;;5040701;28;20193;-72
2021/10/07 06:54:15;;;;;;;27.63;12.65;;;14.70;99.90;;;;;;5061330;28;20186;-70
2021/10/07 06:56:41;;;;;;;25.38;12.10;;;14.70;99.90;;;;;;5059633;28;20174;-71
2021/10/07 06:59:07;;;;;;;22.27;12.15;;;14.70;99.90;;;;;;5059360;28;20215;-71
2021/10/07 07:01:32;;;;;;;24.40;11.63;;;14.70;99.90;;;;;;5039119;28;20592;-71
2021/10/07 07:03:58;;;;;;;26.23;12.32;;;14.70;99.90;;;;;;5056804;28;20195;-71
2021/10/07 07:06:25;;;;;;;25.75;13.60;;;14.70;99.90;;;;;;5062555;28;20214;-70
2021/10/07 07:08:51;;;;;;;34.42;14.30;;;14.70;99.90;;;;;;5059172;28;20214;-71
2021/10/07 07:11:17;;;;;;;26.77;13.48;;;14.70;99.90;;;;;;5059270;28;20279;-71
2021/10/07 07:13:44;;;;;;;25.13;13.45;;;14.80;99.90;;;;;;5061383;28;20347;-71
2021/10/07 07:16:10;;;;;;;24.25;13.18;;;14.80;99.90;;;;;;5061437;28;20236;-71
2021/10/07 07:18:36;;;;;;;21.90;12.65;;;14.80;99.90;;;;;;5039962;28;20195;-71
2021/10/07 07:21:03;;;;;;;26.58;13.80;;;14.80;99.90;;;;;;5058890;28;20570;-70
2021/10/07 07:23:28;;;;;;;29.27;13.32;;;14.80;99.90;;;;;;5059316;28;20207;-71
2021/10/07 07:25:54;;;;;;;29.17;12.95;;;14.80;99.90;;;;;;5075435;28;20272;-70
2021/10/07 07:28:20;;;;;;;26.25;13.30;;;14.80;99.90;;;;;;5061630;28;20183;-70
2021/10/07 07:30:48;;;;;;;30.50;13.52;;;14.90;99.90;;;;;;5061268;28;20205;-71
2021/10/07 07:33:14;;;;;;;28.90;13.38;;;14.90;99.90;;;;;;5055339;28;20186;-71
2021/10/07 07:35:40;;;;;;;25.65;12.98;;;14.90;99.90;;;;;;5062375;28;20212;-71
2021/10/07 07:38:05;;;;;;;27.95;13.82;;;14.90;99.90;;;;;;5040153;28;20182;-72
2021/10/07 07:40:32;;;;;;;25.10;13.38;;;15.00;99.90;;;;;;5058306;28;20202;-72
2021/10/07 07:42:58;;;;;;;29.43;15.27;;;15.00;99.90;;;;;;5059238;28;20409;-72
2021/10/07 07:45:24;;;;;;;32.65;13.45;;;15.60;99.90;;;;;;5060523;28;20207;-72
2021/10/07 07:47:51;;;;;;;27.80;12.27;;;15.50;99.90;;;;;;5061352;28;20568;-72
2021/10/07 07:50:18;;;;;;;20.88;10.95;;;15.40;99.90;;;;;;5041311;28;20183;-72
2021/10/07 07:52:46;;;;;;;26.25;12.60;;;15.40;99.90;;;;;;5062068;28;20186;-71
2021/10/07 07:55:12;;;;;;;22.00;10.48;;;15.40;99.90;;;;;;5041785;28;20182;-72
2021/10/07 07:57:38;;;;;;;25.27;11.63;;;15.40;99.90;;;;;;5061292;28;20388;-72
2021/10/07 08:00:05;;;;;;;15.82;10.00;;;15.50;99.90;;;;;;5061523;28;20190;-71
2021/10/07 08:02:38;;;;;;;21.17;10.25;;;15.60;99.90;;;;;;5056826;28;20222;-71
2021/10/07 08:05:05;;;;;;;23.17;10.43;;;15.70;99.90;;;;;;5061334;28;20210;-72
2021/10/07 08:07:30;;;;;;;18.77;7.55;;;15.80;99.90;;;;;;5074424;28;20474;-71
2021/10/07 08:09:56;;;;;;;17.80;6.60;;;16.60;99.90;;;;;;5058390;28;20413;-72
2021/10/07 08:12:22;;;;;;;15.95;6.20;;;17.10;99.90;;;;;;5041684;28;20399;-71
2021/10/07 08:14:48;;;;;;;15.30;5.50;;;17.40;99.90;;;;;;5040481;28;20409;-71
2021/10/07 08:17:15;;;;;;;12.20;5.00;;;17.60;99.90;;;;;;5040398;28;20424;-71
2021/10/07 08:19:42;;;;;;;15.38;4.63;;;17.70;99.90;;;;;;5058050;28;20721;-71
2021/10/07 08:22:09;;;;;;;11.93;4.15;;;17.80;99.90;;;;;;5059627;28;20218;-71
2021/10/07 08:24:35;;;;;;;13.43;5.20;;;17.40;99.90;;;;;;5060289;28;20206;-71
2021/10/07 08:27:03;;;;;;;15.52;6.55;;;17.10;99.90;;;;;;5057930;28;20187;-71
2021/10/07 08:29:29;;;;;;;12.35;5.60;;;17.00;99.90;;;;;;5062402;28;20183;-71
2021/10/07 08:31:54;;;;;;;13.10;5.65;;;16.90;99.90;;;;;;5055554;28;20191;-71
2021/10/07 08:34:20;;;;;;;14.77;6.18;;;16.90;99.90;;;;;;5058920;28;20186;-71
2021/10/07 08:36:46;;;;;;;13.88;5.63;;;16.80;99.90;;;;;;5040631;28;20187;-71
2021/10/07 08:39:15;;;;;;;10.65;5.10;;;16.80;99.90;;;;;;5041787;28;20215;-71
2021/10/07 08:41:45;;;;;;;13.10;5.05;;;16.80;99.90;;;;;;5042207;28;20217;-71
2021/10/07 08:44:12;;;;;;;16.95;4.70;;;17.00;99.90;;;;;;5061111;28;20890;-72
2021/10/07 08:46:40;;;;;;;13.15;5.55;;;17.10;99.90;;;;;;5062934;28;20228;-71
2021/10/07 08:49:07;;;;;;;18.98;5.50;;;17.30;99.90;;;;;;5046181;28;20190;-72
2021/10/07 08:51:33;;;;;;;13.45;4.75;;;17.60;99.90;;;;;;5059000;28;20903;-73
2021/10/07 08:53:59;;;;;;;13.88;5.20;;;19.20;99.90;;;;;;5062070;28;20418;-72
2021/10/07 08:56:25;;;;;;;14.53;4.97;;;20.50;99.90;;;;;;5063517;28;20414;-73
2021/10/07 08:58:52;;;;;;;15.45;5.38;;;21.10;99.90;;;;;;5063749;28;20403;-72
2021/10/07 09:01:45;;;;;;;14.18;4.70;;;21.30;98.40;;;;;;5062180;28;20948;-72
2021/10/07 09:04:22;;;;;;;12.00;3.67;;;21.30;96.90;;;;;;5058311;28;20765;-72
2021/10/07 09:06:50;;;;;;;13.83;3.53;;;21.20;96.20;;;;;;5060749;28;20431;-73
2021/10/07 09:09:17;;;;;;;13.05;3.25;;;21.00;96.00;;;;;;5061160;28;20401;-73
2021/10/07 09:11:52;;;;;;;13.52;3.38;;;20.90;95.80;;;;;;5060328;28;20190;-72
2021/10/07 09:14:23;;;;;;;16.20;3.80;;;20.30;97.70;;;;;;5059002;28;20476;-71
2021/10/07 09:16:50;;;;;;;12.18;3.70;;;20.50;97.40;;;;;;5061962;28;20430;-72
2021/10/07 09:19:16;;;;;;;15.18;3.50;;;20.60;97.10;;;;;;5060483;28;20416;-72
2021/10/07 09:21:42;;;;;;;12.73;3.97;;;20.70;96.60;;;;;;5043854;28;20411;-72
2021/10/07 09:24:50;;;;;;;16.10;3.45;;;20.70;96.30;;;;;;5060325;28;20617;-72
2021/10/07 09:27:36;;;;;;;14.07;3.70;;;20.90;96.40;;;;;;5052690;28;20415;-73
2021/10/07 09:30:09;;;;;;;16.70;3.25;;;21.80;95.20;;;;;;5059951;28;20403;-72
2021/10/07 09:32:44;;;;;;;13.85;3.58;;;22.50;93.00;;;;;;5044165;28;20198;-73
2021/10/07 09:35:13;;;;;;;11.77;2.38;;;21.70;94.70;;;;;;5064326;28;20205;-73
2021/10/07 09:37:39;;;;;;;14.25;1.85;;;21.30;95.90;;;;;;5061146;28;20169;-72
2021/10/07 09:40:19;;;;;;;9.85;1.88;;;21.30;97.20;;;;;;5064224;28;20419;-73
2021/10/07 09:42:50;;;;;;;10.73;2.03;;;23.00;90.90;;;;;;5055679;28;20279;-73
2021/10/07 09:45:30;;;;;;;6.57;1.60;;;22.50;92.80;;;;;;5048703;28;20241;-73
2021/10/07 09:47:59;;;;;;;5.65;1.60;;;22.20;93.70;;;;;;5061847;28;20213;-73
2021/10/07 09:50:36;;;;;;;9.70;1.88;;;22.00;94.30;;;;;;5062679;28;20181;-73
2021/10/07 09:53:15;;;;;;;12.45;3.60;;;21.80;94.50;;;;;;5060436;28;20232;-72
2021/10/07 09:55:48;;;;;;;14.02;1.98;;;21.50;94.50;;;;;;5059187;28;20209;-72
2021/10/07 09:58:19;;;;;;;9.48;2.25;;;21.40;94.60;;;;;;5061812;28;20553;-73
2021/10/07 10:00:47;;;;;;;11.27;2.35;;;21.10;94.70;;;;;;5059576;28;20191;-72
2021/10/07 10:03:14;;;;;;;9.60;1.92;;;21.00;94.90;;;;;;5042470;28;20700;-72
2021/10/07 10:05:42;;;;;;;7.38;1.50;;;20.90;94.80;;;;;;5062131;28;20210;-72
2021/10/07 10:08:12;;;;;;;5.57;1.63;;;20.70;94.50;;;;;;5062632;28;20718;-72
2021/10/07 10:10:40;;;;;;;7.00;1.90;;;20.60;94.40;;;;;;5060278;28;20261;-72
2021/10/07 10:13:07;;;;;;;7.78;1.95;;;20.50;94.50;;;;;;5063630;28;20626;-72
2021/10/07 10:15:34;;;;;;;7.38;2.15;;;20.30;94.70;;;;;;5077547;28;20277;-73
2021/10/07 10:18:01;;;;;;;6.78;2.20;;;20.20;94.70;;;;;;5061916;28;20187;-72
2021/10/07 10:20:29;;;;;;;6.95;2.20;;;20.10;94.60;;;;;;5062973;28;20844;-73
2021/10/07 10:23:00;;;;;;;9.90;2.17;;;19.90;94.60;;;;;;5057830;28;20198;-73
2021/10/07 10:25:27;;;;;;;11.52;2.63;;;19.80;94.70;;;;;;5062378;28;20293;-73
2021/10/07 10:28:02;;;;;;;7.75;1.63;;;19.60;95.20;;;;;;5058522;28;20276;-73
2021/10/07 10:30:46;;;;;;;10.32;2.00;;;19.50;95.50;;;;;;5061321;28;20635;-72
2021/10/07 10:33:29;;;;;;;14.23;2.80;;;19.30;95.50;;;;;;5058582;28;20707;-72
2021/10/07 10:35:55;;;;;;;8.20;2.40;;;19.20;96.00;;;;;;5062295;28;20250;-72
2021/10/07 10:38:21;;;;;;;11.70;2.10;;;19.10;96.30;;;;;;5060897;28;20183;-73
2021/10/07 10:40:47;;;;;;;10.05;1.83;;;19.00;96.70;;;;;;5060019;28;20194;-71
2021/10/07 10:43:18;;;;;;;9.05;2.60;;;19.00;96.90;;;;;;5073094;28;20749;-72
2021/10/07 10:45:47;;;;;;;12.13;2.30;;;18.90;97.00;;;;;;5059489;28;20208;-72
2021/10/07 10:48:44;;;;;;;10.27;2.45;;;18.80;97.10;;;;;;5055924;28;20187;-73
2021/10/07 10:51:11;;;;;;;6.00;2.00;;;18.70;97.30;;;;;;5058713;28;20194;-72
2021/10/07 10:54:02;;;;;;;11.48;1.90;;;18.70;97.50;;;;;;5059266;28;20894;-73
2021/10/07 10:56:33;;;;;;;13.88;3.00;;;18.60;97.60;;;;;;5072065;28;20186;-72
2021/10/07 10:59:19;;;;;;;12.82;2.28;;;18.60;97.80;;;;;;5062076;28;20202;-72
2021/10/07 11:02:05;;;;;;;9.38;2.20;;;18.50;97.80;;;;;;5075569;28;20215;-72
2021/10/07 11:05:11;;;;;;;8.90;2.20;;;18.50;98.00;;;;;;5057772;28;20199;-73
2021/10/07 11:07:37;;;;;;;8.48;2.38;;;18.40;97.90;;;;;;5050092;28;20195;-71
2021/10/07 11:10:28;;;;;;;11.48;2.60;;;18.40;98.00;;;;;;5072844;28;20191;-71
2021/10/07 11:12:56;;;;;;;17.52;2.70;;;18.40;98.10;;;;;;5054777;28;20194;-70
2021/10/07 11:15:24;;;;;;;8.23;2.40;;;18.40;98.20;;;;;;5037814;28;20182;-71
2021/10/07 11:17:52;;;;;;;7.65;2.63;;;18.40;98.20;;;;;;5062619;28;20768;-71
2021/10/07 11:20:21;;;;;;;10.07;3.00;;;18.40;98.10;;;;;;5060041;28;20195;-70
2021/10/07 11:22:56;;;;;;;9.63;3.42;;;18.40;98.10;;;;;;5058616;28;20190;-71
2021/10/07 11:25:22;;;;;;;10.73;3.80;;;18.40;98.00;;;;;;5053962;28;20214;-70
2021/10/07 11:27:48;;;;;;;10.88;3.80;;;18.40;97.90;;;;;;5054901;28;20179;-71
2021/10/07 11:30:21;;;;;;;13.40;3.40;;;18.50;97.70;;;;;;5042564;28;20563;-72
2021/10/07 11:32:47;;;;;;;9.18;3.22;;;18.50;97.60;;;;;;5041172;28;20233;-71
2021/10/07 11:35:15;;;;;;;12.65;3.63;;;18.60;97.60;;;;;;5076327;28;20191;-72
2021/10/07 11:37:52;;;;;;;11.90;4.50;;;18.70;97.70;;;;;;5063802;28;20190;-73
2021/10/07 11:40:30;;;;;;;12.30;3.45;;;18.80;97.70;;;;;;5046075;28;20192;-71
2021/10/07 11:43:03;;;;;;;8.63;3.33;;;18.90;97.60;;;;;;5078867;28;20221;-72
2021/10/07 11:45:51;;;;;;;6.40;2.70;;;18.90;97.40;;;;;;5071435;28;20211;-73
2021/10/07 11:48:19;;;;;;;14.80;4.65;;;19.10;97.40;;;;;;5062861;28;20983;-72
2021/10/07 11:50:54;;;;;;;16.95;5.72;;;19.20;97.40;;;;;;5078980;28;20266;-71
2021/10/07 11:53:38;;;;;;;61.97;18.48;;;19.30;97.20;;;;;;5063625;28;20181;-70
2021/10/07 11:56:12;;;;;;;21.13;6.30;;;19.40;96.40;;;;;;5059370;28;20783;-72
2021/10/07 11:58:39;;;;;;;18.08;5.60;;;20.30;93.80;;;;;;5061650;28;20403;-72
2021/10/07 12:01:05;;;;;;;44.33;15.00;;;20.80;92.90;;;;;;5057220;28;20510;-73
2021/10/07 12:03:33;;;;;;;32.75;10.30;;;21.10;92.40;;;;;;5061219;28;20703;-70
2021/10/07 12:06:05;;;;;;;27.35;9.10;;;20.90;93.50;;;;;;5062238;28;20210;-73
2021/10/07 12:08:33;;;;;;;;;;;21.20;93.80;;;;;;5061767;28;20025;-71
2021/10/07 12:11:00;;;;;;;12.55;3.47;;;21.50;94.40;;;;;;5059596;28;20509;-71
2021/10/07 12:13:28;;;;;;;21.58;5.28;;;23.30;85.10;;;;;;5063143;28;20856;-72
2021/10/07 12:15:58;;;;;;;17.67;4.03;;;24.80;75.70;;;;;;5058692;28;20401;-72
2021/10/07 12:18:24;;;;;;;23.48;3.17;;;25.80;69.50;;;;;;5062860;28;20506;-70
2021/10/07 12:20:59;;;;;;;11.55;2.30;;;26.40;62.50;;;;;;5061722;28;20194;-71
2021/10/07 12:23:25;;;;;;;5.47;2.10;;;25.80;67.80;;;;;;5043330;28;20179;-72
2021/10/07 12:26:00;;;;;;;11.00;2.92;;;25.60;70.70;;;;;;5060787;28;20416;-71
2021/10/07 12:28:26;;;;;;;6.95;2.30;;;26.90;59.80;;;;;;5062125;28;20488;-71
2021/10/07 12:31:03;;;;;;;7.90;2.30;;;27.60;57.60;;;;;;5057649;28;20407;-71
2021/10/07 12:33:33;;;;;;;11.15;2.40;;;28.20;54.50;;;;;;5060378;28;20480;-71
2021/10/07 12:36:04;;;;;;;12.30;2.53;;;28.70;53.00;;;;;;5059133;28;20197;-72
2021/10/07 12:38:50;;;;;;;8.75;2.40;;;28.10;56.50;;;;;;5045496;28;20190;-69
2021/10/07 12:41:16;;;;;;;9.38;2.15;;;27.70;59.00;;;;;;5062342;28;20193;-70
2021/10/07 12:43:56;;;;;;;5.20;1.92;;;27.60;60.20;;;;;;5046407;28;20667;-70
2021/10/07 12:46:22;;;;;;;6.93;2.13;;;27.40;61.00;;;;;;5074700;28;20221;-70
2021/10/07 12:48:52;;;;;;;5.93;1.92;;;27.40;61.60;;;;;;5062267;28;20509;-72